createdAt,value
2023-03-06T00:03:15.049Z,408.00
2023-03-06T00:07:15.233Z,406.00
2023-03-06T00:11:15.411Z,409.00
2023-03-06T00:15:15.577Z,404.00
2023-03-06T00:19:15.801Z,410.00
2023-03-06T00:23:16.007Z,412.00
2023-03-06T00:27:16.174Z,414.00
2023-03-06T00:31:16.365Z,422.00
2023-03-06T00:35:16.556Z,421.00
2023-03-06T00:39:18.720Z,416.00
2023-03-06T00:43:17.005Z,418.00
2023-03-06T00:47:17.004Z,414.00
2023-03-06T00:51:16.917Z,420.00
2023-03-06T00:55:17.250Z,417.00
2023-03-06T00:59:16.847Z,416.00
2023-03-06T01:03:16.787Z,416.00
2023-03-06T01:07:16.819Z,417.00
2023-03-06T01:11:16.729Z,414.00
2023-03-06T01:15:16.690Z,415.00
2023-03-06T01:19:16.670Z,414.00
2023-03-06T01:23:16.641Z,407.00
2023-03-06T01:27:16.623Z,409.00
2023-03-06T01:31:16.640Z,411.00
2023-03-06T01:35:16.528Z,415.00
2023-03-06T01:39:16.502Z,409.00
2023-03-06T01:43:16.474Z,415.00
2023-03-06T01:47:16.443Z,417.00
2023-03-06T01:51:16.408Z,423.00
2023-03-06T01:55:16.353Z,417.00
2023-03-06T01:59:16.309Z,415.00
2023-03-06T02:03:16.487Z,413.00
2023-03-06T02:07:16.441Z,409.00
2023-03-06T02:11:16.480Z,408.00
2023-03-06T02:15:16.358Z,412.00
2023-03-06T02:19:16.408Z,415.00
2023-03-06T02:23:16.297Z,415.00
2023-03-06T02:27:16.265Z,414.00
2023-03-06T02:31:16.238Z,411.00
2023-03-06T02:35:16.198Z,411.00
2023-03-06T02:39:16.145Z,408.00
2023-03-06T02:43:16.187Z,405.00
2023-03-06T02:47:16.370Z,409.00
2023-03-06T02:51:16.519Z,411.00
2023-03-06T02:55:16.748Z,413.00
2023-03-06T02:59:17.044Z,413.00
2023-03-06T03:03:17.128Z,413.00
2023-03-06T03:07:17.342Z,412.00
2023-03-06T03:11:17.304Z,418.00
2023-03-06T03:15:17.292Z,413.00
2023-03-06T03:19:17.250Z,413.00
2023-03-06T03:23:17.242Z,408.00
2023-03-06T03:27:17.168Z,410.00
2023-03-06T03:31:17.290Z,413.00
2023-03-06T03:35:17.083Z,415.00
2023-03-06T03:39:17.068Z,413.00
2023-03-06T03:43:17.006Z,412.00
2023-03-06T03:47:16.980Z,413.00
2023-03-06T03:51:16.946Z,415.00
2023-03-06T03:55:16.921Z,413.00
2023-03-06T03:59:16.850Z,410.00
2023-03-06T04:03:16.825Z,411.00
2023-03-06T04:07:16.781Z,408.00
2023-03-06T04:11:16.729Z,409.00
2023-03-06T04:15:16.733Z,411.00
2023-03-06T04:19:16.677Z,413.00
2023-03-06T04:23:16.711Z,414.00
2023-03-06T04:27:16.731Z,410.00
2023-03-06T04:31:16.795Z,411.00
2023-03-06T04:35:16.879Z,413.00
2023-03-06T04:39:16.970Z,412.00
2023-03-06T04:43:16.935Z,412.00
2023-03-06T04:47:19.029Z,412.00
2023-03-06T04:51:17.017Z,411.00
2023-03-06T04:55:17.063Z,409.00
2023-03-06T04:59:17.049Z,411.00
2023-03-06T05:03:17.028Z,409.00
2023-03-06T05:07:16.997Z,413.00
2023-03-06T05:11:17.026Z,410.00
2023-03-06T05:15:16.981Z,413.00
2023-03-06T05:19:17.004Z,410.00
2023-03-06T05:23:16.980Z,409.00
2023-03-06T05:27:17.050Z,409.00
2023-03-06T05:31:17.061Z,405.00
2023-03-06T05:35:16.890Z,408.00
2023-03-06T05:39:16.874Z,412.00
2023-03-06T05:43:16.853Z,409.00
2023-03-06T05:47:16.823Z,409.00
2023-03-06T05:51:16.844Z,409.00
2023-03-06T05:55:16.861Z,409.00
2023-03-06T05:59:16.810Z,411.00
2023-03-06T06:03:16.804Z,410.00
2023-03-06T06:07:16.753Z,407.00
2023-03-06T06:11:16.758Z,409.00
2023-03-06T06:15:16.743Z,409.00
2023-03-06T06:19:17.384Z,409.00
2023-03-06T06:23:16.674Z,410.00
2023-03-06T06:27:16.653Z,414.00
2023-03-06T06:31:16.676Z,417.00
2023-03-06T06:35:16.625Z,413.00
2023-03-06T06:39:16.668Z,490.00
2023-03-06T06:43:16.908Z,565.00
2023-03-06T06:47:25.665Z,639.00
2023-03-06T06:51:17.872Z,760.00
2023-03-06T06:55:16.782Z,851.00
2023-03-06T06:59:17.682Z,992.00
2023-03-06T07:03:17.394Z,1069.00
2023-03-06T07:07:17.202Z,1200.00
2023-03-06T07:11:17.404Z,1272.00
2023-03-06T07:15:17.224Z,1361.00
2023-03-06T07:19:17.408Z,1444.00
2023-03-06T07:23:17.353Z,1525.00
2023-03-06T07:27:17.305Z,1577.00
2023-03-06T07:31:17.463Z,1659.00
2023-03-06T07:35:20.387Z,1727.00
2023-03-06T07:39:17.203Z,1836.00
2023-03-06T07:43:19.569Z,1930.00
2023-03-06T07:47:17.408Z,1915.00
2023-03-06T07:51:17.453Z,1781.00
2023-03-06T07:55:17.446Z,1782.00
2023-03-06T07:59:17.076Z,1795.00
2023-03-06T08:03:17.077Z,1740.00
2023-03-06T08:07:16.950Z,1687.00
2023-03-06T08:11:16.926Z,1641.00
2023-03-06T08:15:16.874Z,1615.00
2023-03-06T08:19:16.839Z,1590.00
2023-03-06T08:23:16.953Z,1565.00
2023-03-06T08:27:16.746Z,1577.00
2023-03-06T08:31:16.798Z,1542.00
2023-03-06T08:35:16.735Z,1546.00
2023-03-06T08:39:16.977Z,1550.00
2023-03-06T08:43:16.768Z,1690.00
2023-03-06T08:47:16.943Z,1681.00
2023-03-06T08:51:17.436Z,1728.00
2023-03-06T08:55:17.458Z,1760.00
2023-03-06T08:59:16.989Z,1796.00
2023-03-06T09:03:16.926Z,1824.00
2023-03-06T09:07:16.891Z,1849.00
2023-03-06T09:11:16.884Z,1875.00
2023-03-06T09:15:16.922Z,1906.00
2023-03-06T09:19:16.783Z,1931.00
2023-03-06T09:23:16.750Z,1964.00
2023-03-06T09:27:16.714Z,1975.00
2023-03-06T09:31:16.856Z,1986.00
2023-03-06T09:35:16.647Z,1989.00
2023-03-06T09:39:16.969Z,2003.00
2023-03-06T09:43:16.987Z,2077.00
2023-03-06T09:47:16.981Z,2172.00
2023-03-06T09:51:16.695Z,1926.00
2023-03-06T09:55:16.958Z,1543.00
2023-03-06T09:59:17.484Z,1433.00
2023-03-06T10:03:17.498Z,1395.00
2023-03-06T10:07:17.471Z,1232.00
2023-03-06T10:11:17.298Z,1179.00
2023-03-06T10:15:17.323Z,1119.00
2023-03-06T10:19:17.470Z,1144.00
2023-03-06T10:23:17.498Z,1028.00
2023-03-06T10:27:17.654Z,951.00
2023-03-06T10:31:18.582Z,923.00
2023-03-06T10:35:18.039Z,904.00
2023-03-06T10:39:18.493Z,891.00
2023-03-06T10:43:18.259Z,726.00
2023-03-06T10:47:18.596Z,630.00
2023-03-06T10:51:19.310Z,576.00
2023-03-06T10:55:18.990Z,555.00
2023-03-06T10:59:18.704Z,537.00
2023-03-06T11:03:19.071Z,513.00
2023-03-06T11:07:18.986Z,491.00
2023-03-06T11:11:35.037Z,474.00
2023-03-06T11:15:19.698Z,454.00
2023-03-06T11:19:18.635Z,449.00
2023-03-06T11:23:19.031Z,440.00
2023-03-06T11:27:19.006Z,436.00
2023-03-06T11:31:18.579Z,432.00
2023-03-06T11:35:18.511Z,423.00
2023-03-06T11:39:18.543Z,484.00
2023-03-06T11:43:18.539Z,562.00
2023-03-06T11:47:18.405Z,749.00
2023-03-06T11:51:18.513Z,968.00
2023-03-06T11:55:18.337Z,1129.00
2023-03-06T11:59:18.294Z,1192.00
2023-03-06T12:03:18.290Z,1229.00
2023-03-06T12:07:18.234Z,1386.00
2023-03-06T12:15:18.249Z,1453.00
2023-03-06T12:19:18.471Z,1607.00
2023-03-06T12:23:18.581Z,1630.00
2023-03-06T12:27:19.048Z,1730.00
2023-03-06T12:31:19.059Z,1758.00
2023-03-06T12:35:19.113Z,1719.00
2023-03-06T12:39:19.134Z,1691.00
2023-03-06T12:43:19.375Z,1671.00
2023-03-06T12:47:19.593Z,1628.00
2023-03-06T12:51:19.272Z,1605.00
2023-03-06T12:55:22.693Z,1654.00
2023-03-06T12:59:19.227Z,1723.00
2023-03-06T13:03:19.181Z,1754.00
2023-03-06T13:07:19.136Z,1764.00
2023-03-06T13:11:19.266Z,1718.00
2023-03-06T13:15:19.228Z,1720.00
2023-03-06T13:19:19.203Z,1670.00
2023-03-06T13:23:19.598Z,1668.00
2023-03-06T13:27:19.108Z,1639.00
2023-03-06T13:31:27.220Z,1627.00
2023-03-06T13:35:20.106Z,1605.00
2023-03-06T13:39:19.021Z,1582.00
2023-03-06T13:43:19.234Z,1569.00
2023-03-06T13:47:19.414Z,1554.00
2023-03-06T13:51:19.550Z,1536.00
2023-03-06T13:55:19.638Z,1517.00
2023-03-06T13:59:19.657Z,1488.00
2023-03-06T14:03:19.655Z,1355.00
2023-03-06T14:07:19.709Z,919.00
2023-03-06T14:11:19.822Z,771.00
2023-03-06T14:15:19.788Z,724.00
2023-03-06T14:19:19.776Z,743.00
2023-03-06T14:23:19.684Z,744.00
2023-03-06T14:27:19.703Z,742.00
2023-03-06T14:31:19.668Z,740.00
2023-03-06T14:35:19.677Z,737.00
2023-03-06T14:39:19.579Z,737.00
2023-03-06T14:43:19.526Z,740.00
2023-03-06T14:47:19.496Z,744.00
2023-03-06T14:51:19.470Z,741.00
2023-03-06T14:55:19.409Z,743.00
2023-03-06T14:59:19.386Z,742.00
2023-03-06T15:03:19.613Z,738.00
2023-03-06T15:07:19.319Z,736.00
2023-03-06T15:11:19.254Z,735.00
2023-03-06T15:15:19.668Z,736.00
2023-03-06T15:19:19.316Z,734.00
2023-03-06T15:23:19.720Z,731.00
2023-03-06T15:27:19.536Z,723.00
2023-03-06T15:31:19.670Z,715.00
2023-03-06T15:35:19.775Z,764.00
2023-03-06T15:39:19.823Z,736.00
2023-03-06T15:43:19.959Z,724.00
2023-03-06T15:47:20.041Z,720.00
2023-03-06T15:51:20.202Z,717.00
2023-03-06T15:55:20.262Z,711.00
2023-03-06T15:59:20.363Z,713.00
2023-03-06T16:03:20.454Z,707.00
2023-03-06T16:07:20.566Z,708.00
2023-03-06T16:11:20.633Z,703.00
2023-03-06T16:15:20.723Z,698.00
2023-03-06T16:19:27.954Z,694.00
2023-03-06T16:23:21.835Z,689.00
2023-03-06T16:27:21.173Z,689.00
2023-03-06T16:31:20.745Z,686.00
2023-03-06T16:35:20.725Z,684.00
2023-03-06T16:39:20.765Z,678.00
2023-03-06T16:43:20.951Z,680.00
2023-03-06T16:47:20.985Z,678.00
2023-03-06T16:51:21.089Z,674.00
2023-03-06T16:55:21.246Z,672.00
2023-03-06T16:59:21.398Z,671.00
2023-03-06T17:03:21.696Z,671.00
2023-03-06T17:07:21.715Z,663.00
2023-03-06T17:11:21.832Z,665.00
2023-03-06T17:15:21.957Z,663.00
2023-03-06T17:19:22.124Z,658.00
2023-03-06T17:23:22.229Z,656.00
2023-03-06T17:27:22.401Z,649.00
2023-03-06T17:31:22.584Z,648.00
2023-03-06T17:35:22.749Z,644.00
2023-03-06T17:39:22.855Z,647.00
2023-03-06T17:43:22.990Z,643.00
2023-03-06T17:47:23.172Z,637.00
2023-03-06T17:51:23.321Z,639.00
2023-03-06T17:55:23.507Z,639.00
2023-03-06T17:59:23.661Z,634.00
2023-03-06T18:03:23.838Z,633.00
2023-03-06T18:07:24.047Z,634.00
2023-03-06T18:11:24.242Z,629.00
2023-03-06T18:15:24.425Z,631.00
2023-03-06T18:19:24.575Z,623.00
2023-03-06T18:23:24.795Z,621.00
2023-03-06T18:27:25.002Z,621.00
2023-03-06T18:31:25.235Z,619.00
2023-03-06T18:35:25.438Z,617.00
2023-03-06T18:39:25.579Z,616.00
2023-03-06T18:43:25.762Z,610.00
2023-03-06T18:47:25.992Z,610.00
2023-03-06T18:51:26.225Z,609.00
2023-03-06T18:55:26.456Z,599.00
2023-03-06T18:59:26.643Z,596.00
2023-03-06T19:03:26.618Z,599.00
2023-03-06T19:07:26.683Z,599.00
2023-03-06T19:11:26.537Z,601.00
2023-03-06T19:15:26.512Z,598.00
2023-03-06T19:19:26.488Z,600.00
2023-03-06T19:23:26.436Z,602.00
2023-03-06T19:27:26.406Z,599.00
2023-03-06T19:31:26.634Z,593.00
2023-03-06T19:35:26.390Z,598.00
2023-03-06T19:39:26.320Z,592.00
2023-03-06T19:43:26.237Z,589.00
2023-03-06T19:47:26.233Z,584.00
2023-03-06T19:51:26.197Z,584.00
2023-03-06T19:55:26.141Z,587.00
2023-03-06T19:59:26.127Z,590.00
2023-03-06T20:03:26.068Z,587.00
2023-03-06T20:07:26.053Z,589.00
2023-03-06T20:11:26.091Z,588.00
2023-03-06T20:15:26.071Z,583.00
2023-03-06T20:19:26.073Z,581.00
2023-03-06T20:23:26.055Z,581.00
2023-03-06T20:27:25.973Z,581.00
2023-03-06T20:31:26.052Z,576.00
2023-03-06T20:35:25.893Z,571.00
2023-03-06T20:39:25.860Z,572.00
2023-03-06T20:43:25.857Z,573.00
2023-03-06T20:47:25.823Z,572.00
2023-03-06T20:51:25.775Z,567.00
2023-03-06T20:55:25.725Z,567.00
2023-03-06T20:59:25.917Z,567.00
2023-03-06T21:03:25.858Z,570.00
2023-03-06T21:07:25.852Z,570.00
2023-03-06T21:11:25.786Z,568.00
2023-03-06T21:15:25.733Z,571.00
2023-03-06T21:19:25.747Z,568.00
2023-03-06T21:23:25.701Z,570.00
2023-03-06T21:27:25.646Z,563.00
2023-03-06T21:31:25.665Z,564.00
2023-03-06T21:35:25.655Z,559.00
2023-03-06T21:39:25.571Z,558.00
2023-03-06T21:43:25.524Z,556.00
2023-03-06T21:47:25.507Z,551.00
2023-03-06T21:51:25.422Z,555.00
2023-03-06T21:55:25.417Z,550.00
2023-03-06T21:59:25.501Z,552.00
2023-03-06T22:03:25.519Z,552.00
2023-03-06T22:07:25.511Z,549.00
2023-03-06T22:11:25.529Z,550.00
2023-03-06T22:15:25.573Z,552.00
2023-03-06T22:19:25.617Z,557.00
2023-03-06T22:23:25.642Z,556.00
2023-03-06T22:27:25.691Z,556.00
2023-03-06T22:31:25.768Z,555.00
2023-03-06T22:35:25.719Z,552.00
2023-03-06T22:39:25.669Z,548.00
2023-03-06T22:43:25.635Z,547.00
2023-03-06T22:47:25.650Z,543.00
2023-03-06T22:51:25.611Z,543.00
2023-03-06T22:55:25.596Z,540.00
2023-03-06T22:59:25.571Z,538.00
2023-03-06T23:03:25.534Z,535.00
2023-03-06T23:07:25.512Z,534.00
2023-03-06T23:11:25.501Z,535.00
2023-03-06T23:15:25.493Z,537.00
2023-03-06T23:19:25.494Z,534.00
2023-03-06T23:23:25.465Z,536.00
2023-03-06T23:27:25.496Z,533.00
2023-03-06T23:31:25.474Z,534.00
2023-03-06T23:35:25.482Z,539.00
2023-03-06T23:39:25.425Z,538.00
2023-03-06T23:43:25.404Z,534.00
2023-03-06T23:47:25.393Z,535.00
2023-03-06T23:51:25.336Z,530.00
2023-03-06T23:55:25.334Z,529.00
2023-03-06T23:59:25.334Z,527.00
